sensor_id;sensor_type;location;lat;lon;timestamp;P1;durP1;ratioP1;P2;durP2;ratioP2
46781;SDS011;32541;46.298;11.506;2023-07-30T00:01:31;12.18;;;8.32;;
46781;SDS011;32541;46.298;11.506;2023-07-30T00:03:57;8.40;;;7.57;;
46781;SDS011;32541;46.298;11.506;2023-07-30T00:06:23;8.18;;;7.38;;
46781;SDS011;32541;46.298;11.506;2023-07-30T00:08:48;8.18;;;7.38;;
46781;SDS011;32541;46.298;11.506;2023-07-30T00:11:14;8.85;;;7.43;;
46781;SDS011;32541;46.298;11.506;2023-07-30T00:13:39;8.70;;;7.22;;
46781;SDS011;32541;46.298;11.506;2023-07-30T00:16:04;9.15;;;7.75;;
46781;SDS011;32541;46.298;11.506;2023-07-30T00:18:30;8.50;;;7.13;;
46781;SDS011;32541;46.298;11.506;2023-07-30T00:20:55;8.10;;;7.18;;
46781;SDS011;32541;46.298;11.506;2023-07-30T00:23:20;8.40;;;7.38;;
46781;SDS011;32541;46.298;11.506;2023-07-30T00:25:46;14.38;;;7.38;;
46781;SDS011;32541;46.298;11.506;2023-07-30T00:28:11;10.88;;;8.80;;
46781;SDS011;32541;46.298;11.506;2023-07-30T00:30:37;12.93;;;10.13;;
46781;SDS011;32541;46.298;11.506;2023-07-30T00:33:02;9.55;;;8.65;;
46781;SDS011;32541;46.298;11.506;2023-07-30T00:35:27;8.82;;;7.97;;
46781;SDS011;32541;46.298;11.506;2023-07-30T00:37:53;11.02;;;7.35;;
46781;SDS011;32541;46.298;11.506;2023-07-30T00:40:18;6.97;;;6.28;;
46781;SDS011;32541;46.298;11.506;2023-07-30T00:42:44;5.35;;;4.85;;
46781;SDS011;32541;46.298;11.506;2023-07-30T00:45:09;6.25;;;4.72;;
46781;SDS011;32541;46.298;11.506;2023-07-30T00:47:36;6.78;;;5.10;;
46781;SDS011;32541;46.298;11.506;2023-07-30T00:50:02;8.05;;;4.50;;
46781;SDS011;32541;46.298;11.506;2023-07-30T00:52:28;5.15;;;3.40;;
46781;SDS011;32541;46.298;11.506;2023-07-30T00:54:55;8.05;;;4.63;;
46781;SDS011;32541;46.298;11.506;2023-07-30T00:57:22;5.32;;;4.80;;
46781;SDS011;32541;46.298;11.506;2023-07-30T00:59:48;5.90;;;3.60;;
46781;SDS011;32541;46.298;11.506;2023-07-30T01:02:14;5.88;;;3.70;;
46781;SDS011;32541;46.298;11.506;2023-07-30T01:04:40;6.75;;;4.43;;
46781;SDS011;32541;46.298;11.506;2023-07-30T01:07:06;6.93;;;3.35;;
46781;SDS011;32541;46.298;11.506;2023-07-30T01:09:31;5.68;;;3.10;;
46781;SDS011;32541;46.298;11.506;2023-07-30T01:11:58;4.95;;;2.63;;
46781;SDS011;32541;46.298;11.506;2023-07-30T01:14:25;4.25;;;2.75;;
46781;SDS011;32541;46.298;11.506;2023-07-30T01:16:51;4.00;;;2.60;;
46781;SDS011;32541;46.298;11.506;2023-07-30T01:19:17;3.80;;;2.78;;
46781;SDS011;32541;46.298;11.506;2023-07-30T01:21:43;4.32;;;2.83;;
46781;SDS011;32541;46.298;11.506;2023-07-30T01:24:08;3.42;;;2.58;;
46781;SDS011;32541;46.298;11.506;2023-07-30T01:26:41;4.78;;;2.85;;
46781;SDS011;32541;46.298;11.506;2023-07-30T01:29:11;5.63;;;2.75;;
46781;SDS011;32541;46.298;11.506;2023-07-30T01:31:41;4.70;;;2.80;;
46781;SDS011;32541;46.298;11.506;2023-07-30T01:34:09;3.95;;;2.50;;
46781;SDS011;32541;46.298;11.506;2023-07-30T01:36:37;2.80;;;2.20;;
46781;SDS011;32541;46.298;11.506;2023-07-30T01:39:03;2.60;;;2.28;;
46781;SDS011;32541;46.298;11.506;2023-07-30T01:41:29;2.55;;;1.95;;
46781;SDS011;32541;46.298;11.506;2023-07-30T01:43:55;9.20;;;2.45;;
46781;SDS011;32541;46.298;11.506;2023-07-30T01:46:20;3.80;;;1.75;;
46781;SDS011;32541;46.298;11.506;2023-07-30T01:48:45;3.25;;;1.90;;
46781;SDS011;32541;46.298;11.506;2023-07-30T01:51:11;3.10;;;2.08;;
46781;SDS011;32541;46.298;11.506;2023-07-30T01:53:36;3.78;;;2.30;;
46781;SDS011;32541;46.298;11.506;2023-07-30T01:56:02;4.18;;;2.50;;
46781;SDS011;32541;46.298;11.506;2023-07-30T01:58:27;5.07;;;2.72;;
46781;SDS011;32541;46.298;11.506;2023-07-30T02:00:52;7.65;;;2.65;;
46781;SDS011;32541;46.298;11.506;2023-07-30T02:03:18;3.80;;;2.35;;
46781;SDS011;32541;46.298;11.506;2023-07-30T02:05:43;3.92;;;2.28;;
46781;SDS011;32541;46.298;11.506;2023-07-30T02:08:09;7.95;;;2.53;;
46781;SDS011;32541;46.298;11.506;2023-07-30T02:10:34;5.68;;;3.13;;
46781;SDS011;32541;46.298;11.506;2023-07-30T02:13:00;4.10;;;2.38;;
46781;SDS011;32541;46.298;11.506;2023-07-30T02:15:25;3.22;;;2.00;;
46781;SDS011;32541;46.298;11.506;2023-07-30T02:17:51;3.83;;;2.53;;
46781;SDS011;32541;46.298;11.506;2023-07-30T02:20:16;4.05;;;2.30;;
46781;SDS011;32541;46.298;11.506;2023-07-30T02:22:41;2.67;;;2.00;;
46781;SDS011;32541;46.298;11.506;2023-07-30T02:25:07;2.45;;;1.80;;
46781;SDS011;32541;46.298;11.506;2023-07-30T02:27:32;3.03;;;2.03;;
46781;SDS011;32541;46.298;11.506;2023-07-30T02:29:58;6.25;;;2.00;;
46781;SDS011;32541;46.298;11.506;2023-07-30T02:32:23;6.97;;;2.60;;
46781;SDS011;32541;46.298;11.506;2023-07-30T02:34:49;3.50;;;2.20;;
46781;SDS011;32541;46.298;11.506;2023-07-30T02:37:14;3.45;;;2.22;;
46781;SDS011;32541;46.298;11.506;2023-07-30T02:39:39;3.42;;;2.20;;
46781;SDS011;32541;46.298;11.506;2023-07-30T02:42:06;4.93;;;2.50;;
46781;SDS011;32541;46.298;11.506;2023-07-30T02:44:31;3.60;;;2.15;;
46781;SDS011;32541;46.298;11.506;2023-07-30T02:46:56;2.92;;;2.42;;
46781;SDS011;32541;46.298;11.506;2023-07-30T02:49:22;3.28;;;1.88;;
46781;SDS011;32541;46.298;11.506;2023-07-30T02:51:47;2.90;;;1.90;;
46781;SDS011;32541;46.298;11.506;2023-07-30T02:54:14;4.63;;;2.17;;
46781;SDS011;32541;46.298;11.506;2023-07-30T02:56:42;3.65;;;1.70;;
46781;SDS011;32541;46.298;11.506;2023-07-30T02:59:08;3.40;;;2.17;;
46781;SDS011;32541;46.298;11.506;2023-07-30T03:01:33;2.85;;;1.70;;
46781;SDS011;32541;46.298;11.506;2023-07-30T03:03:58;2.20;;;1.92;;
46781;SDS011;32541;46.298;11.506;2023-07-30T03:06:24;3.10;;;2.00;;
46781;SDS011;32541;46.298;11.506;2023-07-30T03:08:49;2.13;;;1.77;;
46781;SDS011;32541;46.298;11.506;2023-07-30T03:11:15;2.97;;;2.00;;
46781;SDS011;32541;46.298;11.506;2023-07-30T03:13:40;3.63;;;1.98;;
46781;SDS011;32541;46.298;11.506;2023-07-30T03:16:05;2.90;;;2.00;;
46781;SDS011;32541;46.298;11.506;2023-07-30T03:18:31;3.83;;;1.67;;
46781;SDS011;32541;46.298;11.506;2023-07-30T03:20:59;3.03;;;1.90;;
46781;SDS011;32541;46.298;11.506;2023-07-30T03:23:26;2.58;;;1.90;;
46781;SDS011;32541;46.298;11.506;2023-07-30T03:25:52;2.38;;;1.88;;
46781;SDS011;32541;46.298;11.506;2023-07-30T03:28:17;3.63;;;1.58;;
46781;SDS011;32541;46.298;11.506;2023-07-30T03:30:42;4.03;;;1.77;;
46781;SDS011;32541;46.298;11.506;2023-07-30T03:33:08;2.15;;;1.60;;
46781;SDS011;32541;46.298;11.506;2023-07-30T03:35:33;2.83;;;1.80;;
46781;SDS011;32541;46.298;11.506;2023-07-30T03:37:58;3.25;;;2.03;;
46781;SDS011;32541;46.298;11.506;2023-07-30T03:40:24;2.78;;;1.80;;
46781;SDS011;32541;46.298;11.506;2023-07-30T03:42:49;2.17;;;1.63;;
46781;SDS011;32541;46.298;11.506;2023-07-30T03:45:15;3.38;;;2.00;;
46781;SDS011;32541;46.298;11.506;2023-07-30T03:47:40;2.53;;;1.40;;
46781;SDS011;32541;46.298;11.506;2023-07-30T03:50:06;2.53;;;1.65;;
46781;SDS011;32541;46.298;11.506;2023-07-30T03:52:31;1.85;;;1.60;;
46781;SDS011;32541;46.298;11.506;2023-07-30T03:54:56;3.67;;;1.67;;
46781;SDS011;32541;46.298;11.506;2023-07-30T03:57:22;2.15;;;1.65;;
46781;SDS011;32541;46.298;11.506;2023-07-30T03:59:47;3.03;;;1.52;;
46781;SDS011;32541;46.298;11.506;2023-07-30T04:02:13;3.33;;;1.45;;
46781;SDS011;32541;46.298;11.506;2023-07-30T04:04:40;2.72;;;1.83;;
46781;SDS011;32541;46.298;11.506;2023-07-30T04:07:08;3.38;;;1.52;;
46781;SDS011;32541;46.298;11.506;2023-07-30T04:09:34;2.65;;;1.90;;
46781;SDS011;32541;46.298;11.506;2023-07-30T04:11:59;2.72;;;1.98;;
46781;SDS011;32541;46.298;11.506;2023-07-30T04:14:24;1.95;;;1.55;;
46781;SDS011;32541;46.298;11.506;2023-07-30T04:16:50;2.33;;;1.60;;
46781;SDS011;32541;46.298;11.506;2023-07-30T04:19:15;2.70;;;1.77;;
46781;SDS011;32541;46.298;11.506;2023-07-30T04:21:40;1.88;;;1.65;;
46781;SDS011;32541;46.298;11.506;2023-07-30T04:24:06;2.20;;;1.50;;
46781;SDS011;32541;46.298;11.506;2023-07-30T04:26:31;1.50;;;1.40;;
46781;SDS011;32541;46.298;11.506;2023-07-30T04:28:57;3.47;;;1.98;;
46781;SDS011;32541;46.298;11.506;2023-07-30T04:31:22;4.13;;;1.63;;
46781;SDS011;32541;46.298;11.506;2023-07-30T04:33:47;2.55;;;1.50;;
46781;SDS011;32541;46.298;11.506;2023-07-30T04:36:13;2.30;;;1.58;;
46781;SDS011;32541;46.298;11.506;2023-07-30T04:38:38;3.05;;;1.55;;
46781;SDS011;32541;46.298;11.506;2023-07-30T04:41:03;9.30;;;1.58;;
46781;SDS011;32541;46.298;11.506;2023-07-30T04:43:29;5.03;;;1.52;;
46781;SDS011;32541;46.298;11.506;2023-07-30T04:45:54;3.55;;;2.00;;
46781;SDS011;32541;46.298;11.506;2023-07-30T04:48:20;2.08;;;1.65;;
46781;SDS011;32541;46.298;11.506;2023-07-30T04:50:45;2.13;;;1.80;;
46781;SDS011;32541;46.298;11.506;2023-07-30T04:53:10;2.97;;;1.92;;
46781;SDS011;32541;46.298;11.506;2023-07-30T04:55:36;2.17;;;1.63;;
46781;SDS011;32541;46.298;11.506;2023-07-30T04:58:01;1.88;;;1.67;;
46781;SDS011;32541;46.298;11.506;2023-07-30T05:00:28;2.58;;;1.92;;
46781;SDS011;32541;46.298;11.506;2023-07-30T05:02:53;5.50;;;1.90;;
46781;SDS011;32541;46.298;11.506;2023-07-30T05:05:19;3.58;;;2.55;;
46781;SDS011;32541;46.298;11.506;2023-07-30T05:07:44;3.53;;;2.40;;
46781;SDS011;32541;46.298;11.506;2023-07-30T05:10:10;3.03;;;2.42;;
46781;SDS011;32541;46.298;11.506;2023-07-30T05:12:36;3.83;;;2.50;;
46781;SDS011;32541;46.298;11.506;2023-07-30T05:15:02;3.08;;;2.38;;
46781;SDS011;32541;46.298;11.506;2023-07-30T05:17:28;5.10;;;2.17;;
46781;SDS011;32541;46.298;11.506;2023-07-30T05:19:53;2.70;;;2.20;;
46781;SDS011;32541;46.298;11.506;2023-07-30T05:22:19;2.55;;;1.90;;
46781;SDS011;32541;46.298;11.506;2023-07-30T05:24:44;3.03;;;2.00;;
46781;SDS011;32541;46.298;11.506;2023-07-30T05:27:10;2.70;;;1.88;;
46781;SDS011;32541;46.298;11.506;2023-07-30T05:29:35;5.35;;;2.13;;
46781;SDS011;32541;46.298;11.506;2023-07-30T05:32:00;3.88;;;2.58;;
46781;SDS011;32541;46.298;11.506;2023-07-30T05:34:26;3.05;;;2.50;;
46781;SDS011;32541;46.298;11.506;2023-07-30T05:36:51;2.70;;;2.25;;
46781;SDS011;32541;46.298;11.506;2023-07-30T05:39:17;2.53;;;1.80;;
46781;SDS011;32541;46.298;11.506;2023-07-30T05:41:42;2.90;;;2.10;;
46781;SDS011;32541;46.298;11.506;2023-07-30T05:44:07;5.20;;;2.60;;
46781;SDS011;32541;46.298;11.506;2023-07-30T05:46:33;5.03;;;3.13;;
46781;SDS011;32541;46.298;11.506;2023-07-30T05:48:58;3.35;;;2.40;;
46781;SDS011;32541;46.298;11.506;2023-07-30T05:51:23;4.53;;;2.00;;
46781;SDS011;32541;46.298;11.506;2023-07-30T05:53:49;3.70;;;2.33;;
46781;SDS011;32541;46.298;11.506;2023-07-30T05:56:14;2.60;;;2.30;;
46781;SDS011;32541;46.298;11.506;2023-07-30T05:58:43;2.88;;;2.00;;
46781;SDS011;32541;46.298;11.506;2023-07-30T06:01:08;6.15;;;2.72;;
46781;SDS011;32541;46.298;11.506;2023-07-30T06:03:34;3.63;;;2.13;;
46781;SDS011;32541;46.298;11.506;2023-07-30T06:06:00;3.38;;;1.70;;
46781;SDS011;32541;46.298;11.506;2023-07-30T06:08:26;2.53;;;2.20;;
46781;SDS011;32541;46.298;11.506;2023-07-30T06:10:52;2.70;;;2.35;;
46781;SDS011;32541;46.298;11.506;2023-07-30T06:13:17;4.10;;;2.90;;
46781;SDS011;32541;46.298;11.506;2023-07-30T06:15:43;4.78;;;3.80;;
46781;SDS011;32541;46.298;11.506;2023-07-30T06:18:09;3.28;;;2.67;;
46781;SDS011;32541;46.298;11.506;2023-07-30T06:20:34;3.92;;;2.50;;
46781;SDS011;32541;46.298;11.506;2023-07-30T06:22:59;5.03;;;2.92;;
46781;SDS011;32541;46.298;11.506;2023-07-30T06:25:25;3.40;;;2.90;;
46781;SDS011;32541;46.298;11.506;2023-07-30T06:27:50;3.78;;;2.20;;
46781;SDS011;32541;46.298;11.506;2023-07-30T06:30:16;3.28;;;2.40;;
46781;SDS011;32541;46.298;11.506;2023-07-30T06:32:42;2.38;;;1.90;;
46781;SDS011;32541;46.298;11.506;2023-07-30T06:35:07;3.47;;;2.97;;
46781;SDS011;32541;46.298;11.506;2023-07-30T06:37:32;3.83;;;2.65;;
46781;SDS011;32541;46.298;11.506;2023-07-30T06:39:58;2.47;;;1.90;;
46781;SDS011;32541;46.298;11.506;2023-07-30T06:42:24;3.60;;;2.22;;
46781;SDS011;32541;46.298;11.506;2023-07-30T06:44:49;3.53;;;2.20;;
46781;SDS011;32541;46.298;11.506;2023-07-30T06:47:15;5.45;;;2.15;;
46781;SDS011;32541;46.298;11.506;2023-07-30T06:49:40;3.03;;;1.95;;
46781;SDS011;32541;46.298;11.506;2023-07-30T06:52:06;15.55;;;10.00;;
46781;SDS011;32541;46.298;11.506;2023-07-30T06:54:31;3.38;;;2.72;;
46781;SDS011;32541;46.298;11.506;2023-07-30T06:56:57;4.25;;;3.03;;
46781;SDS011;32541;46.298;11.506;2023-07-30T06:59:22;7.07;;;4.50;;
46781;SDS011;32541;46.298;11.506;2023-07-30T07:01:47;5.80;;;4.10;;
46781;SDS011;32541;46.298;11.506;2023-07-30T07:04:13;3.10;;;2.40;;
46781;SDS011;32541;46.298;11.506;2023-07-30T07:06:38;3.00;;;2.58;;
46781;SDS011;32541;46.298;11.506;2023-07-30T07:09:04;2.97;;;2.03;;
46781;SDS011;32541;46.298;11.506;2023-07-30T07:11:29;4.72;;;2.85;;
46781;SDS011;32541;46.298;11.506;2023-07-30T07:13:55;2.55;;;1.77;;
46781;SDS011;32541;46.298;11.506;2023-07-30T07:16:20;2.28;;;1.80;;
46781;SDS011;32541;46.298;11.506;2023-07-30T07:18:46;3.35;;;1.75;;
46781;SDS011;32541;46.298;11.506;2023-07-30T07:21:13;2.50;;;1.52;;
46781;SDS011;32541;46.298;11.506;2023-07-30T07:23:39;2.40;;;1.90;;
46781;SDS011;32541;46.298;11.506;2023-07-30T07:26:04;2.67;;;1.77;;
46781;SDS011;32541;46.298;11.506;2023-07-30T07:28:30;2.38;;;1.65;;
46781;SDS011;32541;46.298;11.506;2023-07-30T07:30:56;32.40;;;21.98;;
46781;SDS011;32541;46.298;11.506;2023-07-30T07:33:21;2.70;;;2.00;;
46781;SDS011;32541;46.298;11.506;2023-07-30T07:35:47;2.92;;;1.92;;
46781;SDS011;32541;46.298;11.506;2023-07-30T07:38:12;2.47;;;1.63;;
46781;SDS011;32541;46.298;11.506;2023-07-30T07:40:38;2.40;;;1.92;;
46781;SDS011;32541;46.298;11.506;2023-07-30T07:43:07;6.68;;;3.90;;
46781;SDS011;32541;46.298;11.506;2023-07-30T07:45:33;13.73;;;7.35;;
46781;SDS011;32541;46.298;11.506;2023-07-30T07:47:59;3.58;;;2.30;;
46781;SDS011;32541;46.298;11.506;2023-07-30T07:50:24;2.50;;;1.83;;
46781;SDS011;32541;46.298;11.506;2023-07-30T07:52:50;2.90;;;2.13;;
46781;SDS011;32541;46.298;11.506;2023-07-30T07:55:16;3.83;;;2.08;;
46781;SDS011;32541;46.298;11.506;2023-07-30T07:57:42;2.67;;;2.10;;
46781;SDS011;32541;46.298;11.506;2023-07-30T08:00:07;4.10;;;2.10;;
46781;SDS011;32541;46.298;11.506;2023-07-30T08:02:33;4.20;;;2.40;;
46781;SDS011;32541;46.298;11.506;2023-07-30T08:04:59;2.78;;;2.28;;
46781;SDS011;32541;46.298;11.506;2023-07-30T08:07:25;3.78;;;2.30;;
46781;SDS011;32541;46.298;11.506;2023-07-30T08:09:50;4.57;;;2.25;;
46781;SDS011;32541;46.298;11.506;2023-07-30T08:12:16;2.60;;;1.98;;
46781;SDS011;32541;46.298;11.506;2023-07-30T08:14:44;2.05;;;1.77;;
46781;SDS011;32541;46.298;11.506;2023-07-30T08:17:09;2.80;;;2.08;;
46781;SDS011;32541;46.298;11.506;2023-07-30T08:19:34;5.22;;;1.95;;
46781;SDS011;32541;46.298;11.506;2023-07-30T08:22:00;3.50;;;1.90;;
46781;SDS011;32541;46.298;11.506;2023-07-30T08:24:25;4.13;;;1.55;;
46781;SDS011;32541;46.298;11.506;2023-07-30T08:26:50;15.65;;;13.65;;
46781;SDS011;32541;46.298;11.506;2023-07-30T08:29:16;18.25;;;12.80;;
46781;SDS011;32541;46.298;11.506;2023-07-30T08:31:41;20.08;;;15.02;;
46781;SDS011;32541;46.298;11.506;2023-07-30T08:34:07;54.55;;;36.60;;
46781;SDS011;32541;46.298;11.506;2023-07-30T08:36:32;71.55;;;51.72;;
46781;SDS011;32541;46.298;11.506;2023-07-30T08:38:58;12.80;;;9.20;;
46781;SDS011;32541;46.298;11.506;2023-07-30T08:41:23;4.72;;;3.00;;
46781;SDS011;32541;46.298;11.506;2023-07-30T08:43:49;2.78;;;2.00;;
46781;SDS011;32541;46.298;11.506;2023-07-30T08:46:17;3.83;;;1.73;;
46781;SDS011;32541;46.298;11.506;2023-07-30T08:48:42;2.70;;;1.85;;
46781;SDS011;32541;46.298;11.506;2023-07-30T08:51:08;4.13;;;1.92;;
46781;SDS011;32541;46.298;11.506;2023-07-30T08:53:34;2.90;;;1.88;;
46781;SDS011;32541;46.298;11.506;2023-07-30T08:55:59;2.75;;;2.00;;
46781;SDS011;32541;46.298;11.506;2023-07-30T08:58:26;2.55;;;1.98;;
46781;SDS011;32541;46.298;11.506;2023-07-30T09:00:53;3.65;;;1.95;;
46781;SDS011;32541;46.298;11.506;2023-07-30T09:03:20;3.40;;;1.88;;
46781;SDS011;32541;46.298;11.506;2023-07-30T09:05:48;3.75;;;1.85;;
46781;SDS011;32541;46.298;11.506;2023-07-30T09:08:14;2.35;;;1.85;;
46781;SDS011;32541;46.298;11.506;2023-07-30T09:10:40;4.32;;;1.98;;
46781;SDS011;32541;46.298;11.506;2023-07-30T09:13:05;2.88;;;2.15;;
46781;SDS011;32541;46.298;11.506;2023-07-30T09:15:32;3.35;;;2.00;;
46781;SDS011;32541;46.298;11.506;2023-07-30T09:18:01;2.30;;;1.88;;
46781;SDS011;32541;46.298;11.506;2023-07-30T09:20:27;2.72;;;2.10;;
46781;SDS011;32541;46.298;11.506;2023-07-30T09:22:55;2.67;;;2.22;;
46781;SDS011;32541;46.298;11.506;2023-07-30T09:25:22;4.43;;;2.28;;
46781;SDS011;32541;46.298;11.506;2023-07-30T09:27:50;2.75;;;1.92;;
46781;SDS011;32541;46.298;11.506;2023-07-30T09:30:21;3.22;;;2.30;;
46781;SDS011;32541;46.298;11.506;2023-07-30T09:32:55;3.05;;;2.20;;
46781;SDS011;32541;46.298;11.506;2023-07-30T09:35:21;3.58;;;2.15;;
46781;SDS011;32541;46.298;11.506;2023-07-30T09:37:50;3.03;;;1.90;;
46781;SDS011;32541;46.298;11.506;2023-07-30T09:40:30;2.50;;;1.50;;
46781;SDS011;32541;46.298;11.506;2023-07-30T09:42:59;2.00;;;1.70;;
46781;SDS011;32541;46.298;11.506;2023-07-30T09:45:25;2.85;;;1.63;;
46781;SDS011;32541;46.298;11.506;2023-07-30T09:47:52;2.75;;;1.90;;
46781;SDS011;32541;46.298;11.506;2023-07-30T09:50:18;1.60;;;1.50;;
46781;SDS011;32541;46.298;11.506;2023-07-30T09:52:44;2.50;;;2.03;;
46781;SDS011;32541;46.298;11.506;2023-07-30T09:55:10;4.38;;;1.95;;
46781;SDS011;32541;46.298;11.506;2023-07-30T09:57:36;4.82;;;4.00;;
46781;SDS011;32541;46.298;11.506;2023-07-30T10:00:03;9.95;;;6.50;;
46781;SDS011;32541;46.298;11.506;2023-07-30T10:02:29;3.15;;;2.25;;
46781;SDS011;32541;46.298;11.506;2023-07-30T10:04:56;2.55;;;2.10;;
46781;SDS011;32541;46.298;11.506;2023-07-30T10:07:24;1.88;;;1.45;;
46781;SDS011;32541;46.298;11.506;2023-07-30T10:09:51;2.80;;;1.65;;
46781;SDS011;32541;46.298;11.506;2023-07-30T10:12:23;2.83;;;1.38;;
46781;SDS011;32541;46.298;11.506;2023-07-30T10:14:52;1.90;;;1.67;;
46781;SDS011;32541;46.298;11.506;2023-07-30T10:17:18;2.20;;;1.25;;
46781;SDS011;32541;46.298;11.506;2023-07-30T10:19:50;2.42;;;1.60;;
46781;SDS011;32541;46.298;11.506;2023-07-30T10:27:27;2.05;;;1.70;;
46781;SDS011;32541;46.298;11.506;2023-07-30T10:30:12;1.80;;;1.40;;
46781;SDS011;32541;46.298;11.506;2023-07-30T10:32:39;2.20;;;1.50;;
46781;SDS011;32541;46.298;11.506;2023-07-30T10:35:08;1.83;;;1.25;;
46781;SDS011;32541;46.298;11.506;2023-07-30T10:37:33;1.90;;;1.27;;
46781;SDS011;32541;46.298;11.506;2023-07-30T10:39:59;2.35;;;1.67;;
46781;SDS011;32541;46.298;11.506;2023-07-30T10:42:32;1.60;;;1.05;;
46781;SDS011;32541;46.298;11.506;2023-07-30T10:44:59;4.22;;;1.33;;
46781;SDS011;32541;46.298;11.506;2023-07-30T10:47:26;1.63;;;1.35;;
46781;SDS011;32541;46.298;11.506;2023-07-30T10:49:52;1.90;;;1.13;;
46781;SDS011;32541;46.298;11.506;2023-07-30T10:52:18;1.70;;;1.17;;
46781;SDS011;32541;46.298;11.506;2023-07-30T10:54:44;1.80;;;1.27;;
46781;SDS011;32541;46.298;11.506;2023-07-30T10:57:09;1.85;;;1.35;;
46781;SDS011;32541;46.298;11.506;2023-07-30T10:59:36;3.05;;;1.45;;
46781;SDS011;32541;46.298;11.506;2023-07-30T11:02:02;2.35;;;1.60;;
46781;SDS011;32541;46.298;11.506;2023-07-30T11:04:28;1.73;;;1.45;;
46781;SDS011;32541;46.298;11.506;2023-07-30T11:06:53;1.52;;;1.20;;
46781;SDS011;32541;46.298;11.506;2023-07-30T11:09:25;1.73;;;1.30;;
46781;SDS011;32541;46.298;11.506;2023-07-30T11:11:56;2.03;;;1.20;;
46781;SDS011;32541;46.298;11.506;2023-07-30T11:14:22;1.88;;;1.30;;
46781;SDS011;32541;46.298;11.506;2023-07-30T11:19:20;2.05;;;1.40;;
46781;SDS011;32541;46.298;11.506;2023-07-30T11:21:46;1.85;;;1.33;;
46781;SDS011;32541;46.298;11.506;2023-07-30T11:24:12;3.00;;;1.40;;
46781;SDS011;32541;46.298;11.506;2023-07-30T11:26:38;1.83;;;1.42;;
46781;SDS011;32541;46.298;11.506;2023-07-30T11:29:19;2.92;;;1.63;;
46781;SDS011;32541;46.298;11.506;2023-07-30T11:31:45;1.55;;;1.13;;
46781;SDS011;32541;46.298;11.506;2023-07-30T11:34:12;2.05;;;1.55;;
46781;SDS011;32541;46.298;11.506;2023-07-30T11:36:39;1.50;;;1.40;;
46781;SDS011;32541;46.298;11.506;2023-07-30T11:39:06;2.72;;;1.40;;
46781;SDS011;32541;46.298;11.506;2023-07-30T11:41:33;1.20;;;1.05;;
46781;SDS011;32541;46.298;11.506;2023-07-30T11:43:58;1.45;;;1.20;;
46781;SDS011;32541;46.298;11.506;2023-07-30T11:46:24;1.42;;;1.20;;
46781;SDS011;32541;46.298;11.506;2023-07-30T11:48:51;3.80;;;3.00;;
46781;SDS011;32541;46.298;11.506;2023-07-30T11:51:25;1.80;;;1.30;;
46781;SDS011;32541;46.298;11.506;2023-07-30T11:56:24;1.60;;;1.30;;
46781;SDS011;32541;46.298;11.506;2023-07-30T11:58:57;1.80;;;1.20;;
46781;SDS011;32541;46.298;11.506;2023-07-30T12:01:28;1.65;;;1.35;;
46781;SDS011;32541;46.298;11.506;2023-07-30T12:03:58;1.80;;;1.33;;
46781;SDS011;32541;46.298;11.506;2023-07-30T12:06:37;2.65;;;1.10;;
46781;SDS011;32541;46.298;11.506;2023-07-30T12:09:14;2.13;;;1.30;;
46781;SDS011;32541;46.298;11.506;2023-07-30T12:11:47;1.50;;;1.20;;
46781;SDS011;32541;46.298;11.506;2023-07-30T12:14:19;1.40;;;1.30;;
46781;SDS011;32541;46.298;11.506;2023-07-30T12:16:54;1.65;;;0.90;;
46781;SDS011;32541;46.298;11.506;2023-07-30T12:19:20;1.60;;;1.17;;
46781;SDS011;32541;46.298;11.506;2023-07-30T12:21:45;1.60;;;0.90;;
46781;SDS011;32541;46.298;11.506;2023-07-30T12:24:11;1.33;;;0.90;;
46781;SDS011;32541;46.298;11.506;2023-07-30T12:26:36;1.25;;;0.82;;
46781;SDS011;32541;46.298;11.506;2023-07-30T12:29:01;1.48;;;1.10;;
46781;SDS011;32541;46.298;11.506;2023-07-30T12:31:27;2.47;;;1.40;;
46781;SDS011;32541;46.298;11.506;2023-07-30T12:33:52;1.13;;;0.80;;
46781;SDS011;32541;46.298;11.506;2023-07-30T12:36:18;1.20;;;0.77;;
46781;SDS011;32541;46.298;11.506;2023-07-30T12:38:43;1.75;;;0.88;;
46781;SDS011;32541;46.298;11.506;2023-07-30T12:41:08;1.75;;;1.10;;
46781;SDS011;32541;46.298;11.506;2023-07-30T12:43:34;1.20;;;0.90;;
46781;SDS011;32541;46.298;11.506;2023-07-30T12:45:59;1.52;;;1.10;;
46781;SDS011;32541;46.298;11.506;2023-07-30T12:48:24;3.03;;;1.10;;
46781;SDS011;32541;46.298;11.506;2023-07-30T12:50:50;1.25;;;1.00;;
46781;SDS011;32541;46.298;11.506;2023-07-30T12:53:15;1.70;;;1.25;;
46781;SDS011;32541;46.298;11.506;2023-07-30T12:55:41;1.55;;;1.25;;
46781;SDS011;32541;46.298;11.506;2023-07-30T12:58:06;1.58;;;1.25;;
46781;SDS011;32541;46.298;11.506;2023-07-30T13:00:33;2.00;;;1.60;;
46781;SDS011;32541;46.298;11.506;2023-07-30T13:02:59;2.15;;;1.40;;
46781;SDS011;32541;46.298;11.506;2023-07-30T13:05:24;1.73;;;1.23;;
46781;SDS011;32541;46.298;11.506;2023-07-30T13:07:50;1.50;;;1.30;;
46781;SDS011;32541;46.298;11.506;2023-07-30T13:10:15;2.63;;;1.33;;
46781;SDS011;32541;46.298;11.506;2023-07-30T13:12:40;3.65;;;1.25;;
46781;SDS011;32541;46.298;11.506;2023-07-30T13:15:06;1.70;;;1.50;;
46781;SDS011;32541;46.298;11.506;2023-07-30T13:17:32;1.58;;;1.23;;
46781;SDS011;32541;46.298;11.506;2023-07-30T13:19:58;2.35;;;1.83;;
46781;SDS011;32541;46.298;11.506;2023-07-30T13:22:23;1.88;;;1.48;;
46781;SDS011;32541;46.298;11.506;2023-07-30T13:24:50;2.83;;;1.52;;
46781;SDS011;32541;46.298;11.506;2023-07-30T13:27:16;1.83;;;1.50;;
46781;SDS011;32541;46.298;11.506;2023-07-30T13:29:42;1.75;;;1.40;;
46781;SDS011;32541;46.298;11.506;2023-07-30T13:32:07;1.98;;;1.58;;
46781;SDS011;32541;46.298;11.506;2023-07-30T13:34:33;2.60;;;1.90;;
46781;SDS011;32541;46.298;11.506;2023-07-30T13:36:58;4.53;;;3.50;;
46781;SDS011;32541;46.298;11.506;2023-07-30T13:39:24;2.70;;;1.98;;
46781;SDS011;32541;46.298;11.506;2023-07-30T13:41:49;3.35;;;2.00;;
46781;SDS011;32541;46.298;11.506;2023-07-30T13:44:14;1.73;;;1.40;;
46781;SDS011;32541;46.298;11.506;2023-07-30T13:46:40;2.22;;;1.60;;
46781;SDS011;32541;46.298;11.506;2023-07-30T13:49:06;3.10;;;1.73;;
46781;SDS011;32541;46.298;11.506;2023-07-30T13:51:32;2.53;;;1.77;;
46781;SDS011;32541;46.298;11.506;2023-07-30T13:53:58;3.53;;;1.77;;
46781;SDS011;32541;46.298;11.506;2023-07-30T13:56:25;2.55;;;1.77;;
46781;SDS011;32541;46.298;11.506;2023-07-30T13:58:50;2.42;;;1.75;;
46781;SDS011;32541;46.298;11.506;2023-07-30T14:01:16;3.03;;;1.60;;
46781;SDS011;32541;46.298;11.506;2023-07-30T14:03:42;1.75;;;1.50;;
46781;SDS011;32541;46.298;11.506;2023-07-30T14:06:08;4.00;;;1.73;;
46781;SDS011;32541;46.298;11.506;2023-07-30T14:08:34;2.92;;;1.70;;
46781;SDS011;32541;46.298;11.506;2023-07-30T14:10:59;2.25;;;1.65;;
46781;SDS011;32541;46.298;11.506;2023-07-30T14:13:25;3.75;;;1.60;;
46781;SDS011;32541;46.298;11.506;2023-07-30T14:15:51;3.00;;;1.50;;
46781;SDS011;32541;46.298;11.506;2023-07-30T14:18:16;1.77;;;1.35;;
46781;SDS011;32541;46.298;11.506;2023-07-30T14:20:42;2.33;;;1.67;;
46781;SDS011;32541;46.298;11.506;2023-07-30T14:23:07;1.50;;;1.38;;
46781;SDS011;32541;46.298;11.506;2023-07-30T14:25:32;2.08;;;1.70;;
46781;SDS011;32541;46.298;11.506;2023-07-30T14:27:58;2.25;;;1.67;;
46781;SDS011;32541;46.298;11.506;2023-07-30T14:30:23;1.98;;;1.40;;
46781;SDS011;32541;46.298;11.506;2023-07-30T14:32:48;2.05;;;1.50;;
46781;SDS011;32541;46.298;11.506;2023-07-30T14:35:14;2.10;;;1.63;;
46781;SDS011;32541;46.298;11.506;2023-07-30T14:37:39;4.47;;;1.88;;